Time;durP1;ratioP1;P1;durP2;ratioP2;P2;SDS_P1;SDS_P2;PMS_P1;PMS_P2;Temp;Humidity;BMP_temperature;BMP_pressure;BME280_temperature;BME280_humidity;BME280_pressure;Samples;Min_cycle;Max_cycle;Signal;HPM_P1;HPM_P2
2022/01/11 00:00:30;;;;;;;29.83;20.73;;;3.00;99.90;;;;;;4997941;28;20434;-66
2022/01/11 00:02:56;;;;;;;37.53;21.23;;;3.10;99.90;;;;;;4997004;28;20455;-66
2022/01/11 00:05:31;;;;;;;31.97;19.40;;;3.10;99.90;;;;;;4993832;28;20508;-66
2022/01/11 00:07:57;;;;;;;26.83;19.93;;;3.10;99.90;;;;;;4996147;28;20974;-65
2022/01/11 00:10:33;;;;;;;27.63;21.00;;;3.00;99.90;;;;;;5003351;28;20433;-66
2022/01/11 00:13:00;;;;;;;31.37;22.67;;;3.00;99.90;;;;;;5004844;28;20198;-66
2022/01/11 00:15:28;;;;;;;29.00;22.07;;;3.10;99.90;;;;;;5008452;28;20581;-65
2022/01/11 00:17:54;;;;;;;28.33;22.37;;;3.00;99.90;;;;;;4993430;28;20513;-65
2022/01/11 00:20:20;;;;;;;29.97;21.60;;;3.10;99.90;;;;;;5003837;28;20430;-65
2022/01/11 00:25:26;;;;;;;27.00;21.00;;;3.20;99.90;;;;;;4999682;28;20433;-66
2022/01/11 00:27:52;;;;;;;26.23;20.47;;;3.10;99.90;;;;;;5005910;28;21026;-65
2022/01/11 00:30:18;;;;;;;30.07;21.57;;;3.10;99.90;;;;;;5006468;28;20580;-66
2022/01/11 00:32:49;;;;;;;25.77;19.90;;;3.10;99.90;;;;;;5000963;28;20210;-65
2022/01/11 00:35:17;;;;;;;28.80;19.00;;;3.10;99.90;;;;;;4998678;28;20441;-66
2022/01/11 00:37:44;;;;;;;29.23;18.30;;;3.10;99.90;;;;;;5008648;28;20429;-66
2022/01/11 00:40:10;;;;;;;30.17;19.63;;;3.00;99.90;;;;;;4993002;28;20782;-66
2022/01/11 00:42:37;;;;;;;25.07;17.07;;;2.90;99.90;;;;;;5001315;28;20457;-66
2022/01/11 00:45:06;;;;;;;30.13;21.13;;;3.00;99.90;;;;;;5009932;28;20955;-66
2022/01/11 00:47:31;;;;;;;27.97;19.73;;;3.00;99.90;;;;;;5008277;28;20462;-66
2022/01/11 00:49:57;;;;;;;22.50;17.97;;;2.90;99.90;;;;;;5006558;28;20848;-66
2022/01/11 00:52:23;;;;;;;26.67;19.27;;;3.00;99.90;;;;;;4997986;28;20348;-66
2022/01/11 00:54:48;;;;;;;29.20;20.20;;;3.00;99.90;;;;;;5009095;28;20175;-66
2022/01/11 00:57:14;;;;;;;27.57;19.60;;;3.00;99.90;;;;;;5001464;28;20461;-66
2022/01/11 00:59:39;;;;;;;27.60;19.87;;;3.00;99.90;;;;;;5009134;28;20206;-66
2022/01/11 01:02:05;;;;;;;28.40;20.50;;;3.00;99.90;;;;;;4999535;28;20199;-66
2022/01/11 01:04:31;;;;;;;34.47;21.23;;;2.90;99.90;;;;;;4998629;28;20175;-66
2022/01/11 01:06:57;;;;;;;26.60;19.30;;;2.80;99.90;;;;;;4995824;28;20179;-66
2022/01/11 01:09:25;;;;;;;30.37;20.40;;;2.80;99.90;;;;;;4992722;28;20179;-66
2022/01/11 01:11:51;;;;;;;35.03;22.27;;;2.80;99.90;;;;;;4992191;28;20214;-66
2022/01/11 01:14:17;;;;;;;26.10;19.70;;;2.80;99.90;;;;;;4999806;28;20934;-65
2022/01/11 01:16:43;;;;;;;30.60;18.90;;;2.80;99.90;;;;;;5004753;28;20194;-66
2022/01/11 01:19:09;;;;;;;24.57;19.13;;;2.90;99.90;;;;;;4994299;28;20940;-66
2022/01/11 01:21:38;;;;;;;27.77;18.13;;;2.90;99.90;;;;;;4999729;28;20202;-66
2022/01/11 01:24:08;;;;;;;27.73;18.57;;;2.90;99.90;;;;;;5001952;28;20438;-66
2022/01/11 01:26:34;;;;;;;26.50;19.07;;;3.00;99.90;;;;;;4998739;28;20452;-66
2022/01/11 01:29:01;;;;;;;27.97;20.60;;;3.00;99.90;;;;;;5002109;28;20532;-66
2022/01/11 01:31:27;;;;;;;29.10;19.40;;;3.00;99.90;;;;;;4998075;28;20217;-66
2022/01/11 01:33:54;;;;;;;26.70;18.40;;;3.00;99.90;;;;;;5001867;28;20431;-66
2022/01/11 01:36:19;;;;;;;25.90;19.30;;;3.00;99.90;;;;;;4995404;28;20767;-66
2022/01/11 01:38:45;;;;;;;28.10;18.13;;;3.00;99.90;;;;;;4993983;28;20533;-66
2022/01/11 01:41:18;;;;;;;26.77;16.87;;;3.10;99.90;;;;;;4996680;28;20201;-66
2022/01/11 01:43:46;;;;;;;28.30;18.30;;;3.10;99.90;;;;;;5007844;28;20175;-66
2022/01/11 01:46:13;;;;;;;29.30;20.30;;;3.00;99.90;;;;;;5005406;28;20950;-66
2022/01/11 01:48:39;;;;;;;31.50;19.10;;;3.00;99.90;;;;;;5005130;28;20537;-65
2022/01/11 01:51:06;;;;;;;24.40;17.80;;;3.00;99.90;;;;;;5000452;28;20922;-66
2022/01/11 01:53:34;;;;;;;29.07;20.93;;;2.90;99.90;;;;;;5007990;28;20186;-66
2022/01/11 01:56:00;;;;;;;28.03;20.40;;;2.90;99.90;;;;;;5009520;28;20437;-65
2022/01/11 01:58:25;;;;;;;24.00;17.10;;;3.00;99.90;;;;;;5002655;28;20437;-66
2022/01/11 02:00:55;;;;;;;28.37;19.53;;;3.00;99.90;;;;;;5010919;28;20616;-66
2022/01/11 02:03:26;;;;;;;26.10;16.10;;;3.00;99.90;;;;;;5006502;28;20182;-65
2022/01/11 02:05:54;;;;;;;25.50;18.40;;;2.90;99.90;;;;;;5011890;28;20500;-66
2022/01/11 02:08:20;;;;;;;31.17;19.57;;;2.90;99.90;;;;;;5010272;28;20822;-66
2022/01/11 02:10:45;;;;;;;24.73;18.63;;;2.90;99.90;;;;;;4996364;28;20430;-66
2022/01/11 02:13:11;;;;;;;34.20;20.27;;;2.90;99.90;;;;;;5005569;28;20183;-66
2022/01/11 02:15:37;;;;;;;31.07;20.83;;;2.90;99.90;;;;;;5013031;28;20183;-66
2022/01/11 02:18:15;;;;;;;25.00;19.27;;;3.00;99.90;;;;;;5005719;28;20175;-66
2022/01/11 02:20:43;;;;;;;25.57;18.27;;;3.10;99.90;;;;;;4998635;28;20454;-66
2022/01/11 02:23:09;;;;;;;31.10;20.77;;;3.00;99.90;;;;;;5006590;28;20838;-66
2022/01/11 02:25:36;;;;;;;26.83;18.33;;;3.00;99.90;;;;;;5011172;28;20966;-65
2022/01/11 02:28:01;;;;;;;25.53;18.47;;;3.00;99.90;;;;;;5011893;28;20450;-66
2022/01/11 02:30:31;;;;;;;31.57;18.73;;;3.00;99.90;;;;;;4996326;28;20446;-66
2022/01/11 02:32:57;;;;;;;32.40;19.30;;;3.10;99.90;;;;;;4996048;28;20199;-65
2022/01/11 02:35:22;;;;;;;30.67;19.00;;;3.10;99.90;;;;;;5004810;28;20869;-66
2022/01/11 02:37:48;;;;;;;26.87;16.80;;;3.10;99.90;;;;;;5000666;28;20176;-66
2022/01/11 02:40:15;;;;;;;24.37;18.00;;;3.00;99.90;;;;;;4998004;28;20204;-65
2022/01/11 02:42:40;;;;;;;26.80;19.10;;;3.00;99.90;;;;;;5001764;28;20238;-65
2022/01/11 02:45:14;;;;;;;27.63;19.50;;;3.00;99.90;;;;;;5008055;28;20438;-66
2022/01/11 02:47:39;;;;;;;30.13;20.30;;;3.10;99.90;;;;;;5012719;28;20191;-66
2022/01/11 02:50:05;;;;;;;27.17;18.83;;;3.10;99.90;;;;;;4999280;28;20514;-66
2022/01/11 02:52:31;;;;;;;30.90;21.00;;;3.10;99.90;;;;;;4998330;28;20203;-66
2022/01/11 02:54:56;;;;;;;27.83;19.27;;;3.10;99.90;;;;;;4996430;28;20466;-66
2022/01/11 02:57:22;;;;;;;32.07;20.10;;;3.10;99.90;;;;;;5007838;28;20902;-66
2022/01/11 02:59:47;;;;;;;27.87;18.80;;;3.00;99.90;;;;;;5003599;28;20218;-66
2022/01/11 03:02:13;;;;;;;30.07;20.83;;;3.10;99.90;;;;;;5001599;28;20203;-66
2022/01/11 03:04:38;;;;;;;29.50;20.70;;;3.00;99.90;;;;;;5011919;28;20189;-66
2022/01/11 03:07:04;;;;;;;28.07;20.60;;;2.90;99.90;;;;;;5004871;28;20182;-66
2022/01/11 03:09:39;;;;;;;28.20;19.53;;;2.90;99.90;;;;;;4998985;28;20191;-66
2022/01/11 03:12:06;;;;;;;26.33;20.63;;;3.00;99.90;;;;;;4994080;28;20462;-66
2022/01/11 03:14:31;;;;;;;32.30;18.87;;;3.10;99.90;;;;;;4994379;28;20849;-66
2022/01/11 03:16:57;;;;;;;34.30;20.27;;;3.10;99.90;;;;;;5003094;28;20520;-66
2022/01/11 03:19:22;;;;;;;32.07;20.30;;;3.10;99.90;;;;;;4996497;28;20254;-66
2022/01/11 03:21:48;;;;;;;24.03;19.00;;;3.00;99.90;;;;;;5004629;28;20210;-66
2022/01/11 03:24:13;;;;;;;33.40;21.37;;;3.00;99.90;;;;;;5003887;28;20203;-66
2022/01/11 03:26:40;;;;;;;28.80;20.27;;;3.00;99.90;;;;;;5005744;28;20210;-66
2022/01/11 03:29:05;;;;;;;30.90;19.93;;;3.10;99.90;;;;;;5007739;28;20184;-66
2022/01/11 03:31:31;;;;;;;32.50;20.33;;;3.10;99.90;;;;;;5001976;28;20465;-66
2022/01/11 03:33:56;;;;;;;31.90;19.90;;;3.10;99.90;;;;;;4998459;28;20184;-65
2022/01/11 03:36:22;;;;;;;33.50;21.33;;;3.10;99.90;;;;;;5002281;28;20542;-65
2022/01/11 03:38:47;;;;;;;32.40;20.20;;;3.10;99.90;;;;;;5002609;28;20195;-65
2022/01/11 03:41:13;;;;;;;38.20;22.10;;;3.10;99.90;;;;;;4995772;28;20202;-66
2022/01/11 03:43:39;;;;;;;35.47;21.90;;;2.90;99.90;;;;;;4994473;28;20956;-66
2022/01/11 03:46:05;;;;;;;30.93;20.63;;;2.80;99.90;;;;;;5010475;28;20244;-66
2022/01/11 03:48:30;;;;;;;30.63;21.07;;;2.80;99.90;;;;;;5006280;28;20804;-66
2022/01/11 03:50:56;;;;;;;33.23;22.93;;;2.80;99.90;;;;;;4999518;28;20305;-66
2022/01/11 03:53:27;;;;;;;32.93;21.23;;;2.80;99.90;;;;;;5006824;28;20172;-66
2022/01/11 03:58:26;;;;;;;29.70;20.53;;;2.90;99.90;;;;;;4996735;28;20442;-65
2022/01/11 04:00:53;;;;;;;33.47;22.73;;;3.00;99.90;;;;;;5007394;28;20444;-65
2022/01/11 04:03:19;;;;;;;33.07;21.97;;;3.00;99.90;;;;;;5007425;28;20431;-65
2022/01/11 04:05:46;;;;;;;37.77;22.90;;;3.00;99.90;;;;;;4997554;28;20863;-66
2022/01/11 04:08:12;;;;;;;34.50;20.70;;;3.00;99.90;;;;;;5003949;28;20171;-65
2022/01/11 04:10:37;;;;;;;34.07;22.07;;;2.90;99.90;;;;;;4995116;28;20470;-65
2022/01/11 04:13:03;;;;;;;42.47;23.17;;;2.80;99.90;;;;;;4997833;28;20697;-65
2022/01/11 04:15:29;;;;;;;32.93;21.03;;;2.90;99.90;;;;;;5007064;28;20255;-65
2022/01/11 04:17:55;;;;;;;31.13;21.63;;;2.90;99.90;;;;;;5006866;28;20171;-66
2022/01/11 04:20:22;;;;;;;32.87;20.40;;;2.90;99.90;;;;;;4993302;28;20176;-66
2022/01/11 04:22:48;;;;;;;32.33;20.50;;;2.90;99.90;;;;;;5009360;28;20735;-65
2022/01/11 04:25:14;;;;;;;29.00;20.40;;;2.90;99.90;;;;;;5009577;28;20438;-65
2022/01/11 04:27:40;;;;;;;31.20;19.20;;;3.00;99.90;;;;;;5009929;28;20843;-65
2022/01/11 04:30:06;;;;;;;33.03;22.90;;;3.00;99.90;;;;;;5006407;28;20481;-65
2022/01/11 04:32:31;;;;;;;31.27;20.93;;;3.00;99.90;;;;;;4995917;28;20203;-65
2022/01/11 04:34:57;;;;;;;31.90;20.30;;;3.00;99.90;;;;;;5007689;28;20469;-65
2022/01/11 04:37:23;;;;;;;34.03;20.83;;;2.90;99.90;;;;;;5010594;28;20539;-65
2022/01/11 04:39:49;;;;;;;33.47;20.83;;;2.90;99.90;;;;;;5011221;28;20644;-65
2022/01/11 04:42:14;;;;;;;31.20;21.97;;;2.90;99.90;;;;;;5004280;28;20280;-66
2022/01/11 04:44:40;;;;;;;33.17;21.33;;;2.90;99.90;;;;;;4997992;28;20599;-66
2022/01/11 04:47:06;;;;;;;34.63;21.07;;;2.80;99.90;;;;;;4997887;28;20225;-66
2022/01/11 04:49:31;;;;;;;30.27;20.40;;;2.90;99.90;;;;;;5010375;28;20175;-66
2022/01/11 04:51:57;;;;;;;29.60;21.20;;;2.80;99.90;;;;;;4999461;28;20462;-65
2022/01/11 04:54:23;;;;;;;33.33;19.47;;;2.90;99.90;;;;;;5010757;28;20238;-66
2022/01/11 04:56:48;;;;;;;33.90;19.50;;;3.00;99.90;;;;;;4992541;28;20537;-66
2022/01/11 04:59:14;;;;;;;32.37;20.47;;;3.00;99.90;;;;;;4994393;28;20176;-65
2022/01/11 05:01:40;;;;;;;33.77;20.70;;;3.00;99.90;;;;;;4992708;28;20252;-65
2022/01/11 05:04:06;;;;;;;27.47;18.43;;;3.00;99.90;;;;;;5008773;28;20263;-65
2022/01/11 05:06:32;;;;;;;30.27;21.47;;;3.00;99.90;;;;;;5001204;28;20465;-66
2022/01/11 05:08:58;;;;;;;28.70;19.50;;;2.90;99.90;;;;;;4995804;28;20468;-66
2022/01/11 05:11:23;;;;;;;27.87;19.37;;;2.90;99.90;;;;;;5000711;28;20213;-66
2022/01/11 05:13:49;;;;;;;26.57;19.47;;;3.00;99.90;;;;;;5011426;28;20183;-66
2022/01/11 05:16:15;;;;;;;31.97;20.50;;;2.90;99.90;;;;;;5001183;28;20183;-66
2022/01/11 05:18:40;;;;;;;28.03;19.13;;;3.00;99.90;;;;;;5010567;28;20434;-66
2022/01/11 05:21:06;;;;;;;25.50;19.13;;;3.00;99.90;;;;;;5000520;28;20204;-65
2022/01/11 05:23:34;;;;;;;28.03;19.67;;;3.00;99.90;;;;;;4998564;28;20266;-66
2022/01/11 05:26:00;;;;;;;26.87;19.40;;;3.00;99.90;;;;;;4995942;28;20270;-65
2022/01/11 05:28:25;;;;;;;32.33;21.40;;;3.10;99.90;;;;;;4999558;28;20430;-66
2022/01/11 05:30:51;;;;;;;31.70;21.73;;;3.10;99.90;;;;;;5002833;28;21000;-66
2022/01/11 05:33:17;;;;;;;29.33;19.20;;;3.10;99.90;;;;;;4998730;28;20446;-66
2022/01/11 05:35:42;;;;;;;28.03;20.17;;;3.10;99.90;;;;;;4999094;28;20679;-66
2022/01/11 05:38:08;;;;;;;24.83;19.17;;;3.10;99.90;;;;;;5009089;28;20206;-66
2022/01/11 05:40:33;;;;;;;35.50;21.00;;;3.10;99.90;;;;;;5004088;28;20175;-66
2022/01/11 05:42:59;;;;;;;28.77;19.03;;;3.20;99.90;;;;;;5003390;28;20274;-66
2022/01/11 05:45:25;;;;;;;30.37;18.93;;;3.20;99.90;;;;;;4997626;28;20552;-66
2022/01/11 05:47:53;;;;;;;29.93;20.93;;;3.20;99.90;;;;;;5007160;28;20178;-66
2022/01/11 05:50:20;;;;;;;31.77;22.37;;;3.20;99.90;;;;;;5012929;28;20256;-66
2022/01/11 05:52:46;;;;;;;35.77;22.50;;;3.20;99.90;;;;;;5012954;28;20461;-66
2022/01/11 05:55:13;;;;;;;34.53;20.50;;;3.20;99.90;;;;;;5000231;28;20473;-66
2022/01/11 05:57:41;;;;;;;37.83;20.37;;;3.20;99.90;;;;;;5003399;28;20179;-65
2022/01/11 06:00:09;;;;;;;28.53;21.40;;;3.20;99.90;;;;;;5001481;28;20449;-66
2022/01/11 06:02:35;;;;;;;27.30;18.60;;;3.30;99.90;;;;;;5000469;28;20461;-66
2022/01/11 06:05:00;;;;;;;24.37;18.10;;;3.30;99.90;;;;;;5001411;28;20441;-66
2022/01/11 06:07:26;;;;;;;34.50;21.70;;;3.30;99.90;;;;;;5014184;28;20526;-66
2022/01/11 06:09:51;;;;;;;34.60;21.03;;;3.30;99.90;;;;;;5013031;28;20179;-66
2022/01/11 06:12:17;;;;;;;39.70;21.83;;;3.30;99.90;;;;;;4995189;28;20693;-65
2022/01/11 06:14:42;;;;;;;28.60;21.53;;;3.30;99.90;;;;;;5006519;28;20178;-66
2022/01/11 06:17:08;;;;;;;28.50;20.80;;;3.40;99.90;;;;;;5004029;28;20246;-65
2022/01/11 06:19:34;;;;;;;33.37;21.33;;;3.30;99.90;;;;;;4996107;28;20681;-65
2022/01/11 06:21:59;;;;;;;35.10;21.17;;;3.30;99.90;;;;;;5004494;28;20610;-65
2022/01/11 06:24:25;;;;;;;35.17;21.77;;;3.30;99.90;;;;;;5004183;28;20234;-65
2022/01/11 06:26:50;;;;;;;36.90;21.67;;;3.30;99.90;;;;;;4995610;28;20546;-65
2022/01/11 06:29:16;;;;;;;31.27;21.80;;;3.30;99.90;;;;;;5007608;28;20549;-65
2022/01/11 06:31:41;;;;;;;35.70;22.53;;;3.30;99.90;;;;;;5012885;28;20218;-65
2022/01/11 06:34:07;;;;;;;40.07;23.83;;;3.30;99.90;;;;;;5007322;28;20184;-65
2022/01/11 06:36:32;;;;;;;34.10;23.17;;;3.40;99.90;;;;;;4995259;28;20198;-66
2022/01/11 06:38:58;;;;;;;31.80;20.57;;;3.40;99.90;;;;;;5006667;28;20167;-65
2022/01/11 06:41:24;;;;;;;31.10;20.33;;;3.40;99.90;;;;;;5005478;28;20201;-65
2022/01/11 06:43:52;;;;;;;32.07;23.17;;;3.40;99.90;;;;;;4997342;28;20183;-66
2022/01/11 06:46:17;;;;;;;31.33;21.37;;;3.40;99.90;;;;;;5012789;28;20959;-65
2022/01/11 06:48:43;;;;;;;33.27;20.43;;;3.40;99.90;;;;;;5003255;28;20454;-63
2022/01/11 06:51:08;;;;;;;30.93;21.00;;;3.40;99.90;;;;;;5008507;28;20215;-63
2022/01/11 06:53:34;;;;;;;38.13;23.27;;;3.40;99.90;;;;;;4996140;28;20167;-63
2022/01/11 06:56:00;;;;;;;33.57;23.77;;;3.40;99.90;;;;;;5001628;28;20824;-69
2022/01/11 06:58:25;;;;;;;39.03;23.27;;;3.40;99.90;;;;;;5006744;28;20615;-67
2022/01/11 07:00:51;;;;;;;34.60;22.43;;;3.40;99.90;;;;;;4997939;28;20179;-68
2022/01/11 07:03:16;;;;;;;35.90;21.20;;;3.40;99.90;;;;;;5012689;28;20225;-67
2022/01/11 07:05:43;;;;;;;29.43;22.87;;;3.40;99.90;;;;;;4995636;28;20204;-67
2022/01/11 07:08:09;;;;;;;30.33;22.43;;;3.30;99.90;;;;;;5009357;28;20171;-67
2022/01/11 07:10:35;;;;;;;35.90;23.10;;;3.30;99.90;;;;;;5003452;28;20457;-67
2022/01/11 07:13:02;;;;;;;31.37;21.37;;;3.30;99.90;;;;;;5000070;28;20473;-67
2022/01/11 07:15:28;;;;;;;31.47;20.40;;;3.30;99.90;;;;;;5010712;28;20204;-69
2022/01/11 07:17:54;;;;;;;33.90;20.43;;;3.20;99.90;;;;;;5007401;28;20443;-70
2022/01/11 07:20:19;;;;;;;33.93;23.60;;;3.20;99.90;;;;;;5011370;28;20430;-68
2022/01/11 07:22:45;;;;;;;38.30;23.63;;;3.30;99.90;;;;;;5011583;28;20210;-67
2022/01/11 07:25:10;;;;;;;30.30;23.87;;;3.30;99.90;;;;;;5007971;28;20211;-68
2022/01/11 07:27:36;;;;;;;33.87;24.10;;;3.30;99.90;;;;;;5000480;28;20258;-68
2022/01/11 07:30:04;;;;;;;33.07;23.00;;;3.30;99.90;;;;;;5007214;28;20265;-65
2022/01/11 07:32:31;;;;;;;37.80;25.23;;;3.30;99.90;;;;;;5003067;28;20211;-65
2022/01/11 07:34:58;;;;;;;42.20;25.73;;;3.30;99.90;;;;;;5006600;28;20438;-65
2022/01/11 07:37:24;;;;;;;34.30;24.20;;;3.30;99.90;;;;;;5002614;28;20466;-68
2022/01/11 07:39:49;;;;;;;41.07;22.70;;;3.30;99.90;;;;;;5000399;28;20528;-68
2022/01/11 07:42:15;;;;;;;39.17;25.83;;;3.30;99.90;;;;;;4996227;28;20863;-65
2022/01/11 07:44:43;;;;;;;32.70;24.63;;;3.40;99.90;;;;;;4994748;28;20273;-66
2022/01/11 07:47:08;;;;;;;37.20;24.20;;;3.40;99.90;;;;;;4983292;28;20573;-67
2022/01/11 07:49:34;;;;;;;35.20;24.67;;;3.40;99.90;;;;;;4998644;28;20444;-66
2022/01/11 07:52:00;;;;;;;30.27;23.93;;;3.50;99.90;;;;;;5006353;28;20211;-66
2022/01/11 07:54:25;;;;;;;34.30;23.80;;;3.50;99.90;;;;;;5009514;28;20254;-65
2022/01/11 07:56:51;;;;;;;35.40;22.97;;;3.60;99.90;;;;;;5005581;28;20186;-66
2022/01/11 07:59:17;;;;;;;42.83;23.87;;;3.60;99.90;;;;;;4998722;28;20629;-65
2022/01/11 08:01:42;;;;;;;41.33;25.10;;;3.70;99.90;;;;;;5010936;28;20281;-66
2022/01/11 08:04:08;;;;;;;38.57;23.57;;;3.70;99.90;;;;;;5008075;28;20641;-66
2022/01/11 08:06:33;;;;;;;48.07;29.07;;;3.80;99.90;;;;;;5001019;28;20179;-66
2022/01/11 08:09:00;;;;;;;41.87;28.80;;;3.90;99.90;;;;;;5012115;28;20175;-65
2022/01/11 08:11:26;;;;;;;32.40;23.57;;;3.90;99.90;;;;;;5006715;28;20211;-68
2022/01/11 08:13:52;;;;;;;41.33;23.43;;;3.90;99.90;;;;;;5010046;28;20460;-66
2022/01/11 08:16:17;;;;;;;35.60;23.90;;;3.90;99.90;;;;;;4999332;28;20446;-66
2022/01/11 08:18:43;;;;;;;40.67;24.53;;;3.90;99.90;;;;;;5001622;28;20178;-67
2022/01/11 08:21:08;;;;;;;35.90;24.13;;;4.00;99.90;;;;;;4992779;28;20199;-65
2022/01/11 08:23:34;;;;;;;39.00;23.77;;;4.00;99.90;;;;;;4991964;28;20191;-65
2022/01/11 08:26:00;;;;;;;34.27;22.03;;;3.90;99.90;;;;;;4989955;28;20191;-67
2022/01/11 08:28:26;;;;;;;39.70;28.43;;;4.00;99.90;;;;;;4999341;28;20179;-66
2022/01/11 08:30:52;;;;;;;35.13;23.33;;;3.80;99.90;;;;;;4996468;28;20439;-65
2022/01/11 08:33:17;;;;;;;37.20;23.77;;;3.90;99.90;;;;;;4996474;28;20271;-65
2022/01/11 08:35:43;;;;;;;32.93;22.80;;;4.00;99.90;;;;;;4992950;28;21225;-65
2022/01/11 08:38:09;;;;;;;33.23;25.97;;;4.10;99.90;;;;;;4991253;28;20178;-65
2022/01/11 08:40:34;;;;;;;41.10;24.50;;;4.10;99.90;;;;;;4990616;28;20202;-65
2022/01/11 08:43:03;;;;;;;37.27;24.23;;;4.10;99.90;;;;;;4999786;28;20213;-66
2022/01/11 08:45:28;;;;;;;34.07;26.40;;;4.10;99.90;;;;;;4997529;28;20186;-65
2022/01/11 08:47:54;;;;;;;33.27;24.03;;;4.10;99.90;;;;;;4996241;28;20935;-65
2022/01/11 08:50:19;;;;;;;36.17;23.23;;;4.20;99.90;;;;;;5006928;28;20598;-65
2022/01/11 08:52:45;;;;;;;40.17;26.20;;;4.30;99.90;;;;;;4989414;28;20211;-67
2022/01/11 08:55:11;;;;;;;38.33;25.50;;;4.40;99.90;;;;;;4995680;28;20665;-65
2022/01/11 08:57:37;;;;;;;34.30;21.60;;;4.50;99.90;;;;;;4999770;28;20645;-66
2022/01/11 09:00:08;;;;;;;32.20;22.60;;;4.50;99.90;;;;;;5002524;28;20978;-66
2022/01/11 09:02:35;;;;;;;33.73;22.63;;;4.50;99.90;;;;;;4994024;28;20469;-66
2022/01/11 09:05:01;;;;;;;33.10;22.33;;;4.50;99.90;;;;;;4999582;28;21231;-65
2022/01/11 09:07:27;;;;;;;31.90;21.80;;;4.60;99.90;;;;;;5005408;28;20434;-66
2022/01/11 09:09:52;;;;;;;27.60;21.00;;;4.70;99.90;;;;;;4996944;28;20480;-66
2022/01/11 09:12:19;;;;;;;31.20;21.23;;;4.70;99.90;;;;;;5003765;28;20263;-66
2022/01/11 09:14:46;;;;;;;28.93;21.63;;;4.80;99.90;;;;;;5010151;28;20181;-66
2022/01/11 09:17:12;;;;;;;31.97;21.70;;;4.90;99.90;;;;;;5007306;28;20486;-66
2022/01/11 09:19:38;;;;;;;37.17;25.20;;;4.90;99.90;;;;;;5009217;28;20442;-66
2022/01/11 09:22:05;;;;;;;31.73;23.00;;;4.80;99.90;;;;;;5003585;28;21035;-65
2022/01/11 09:24:30;;;;;;;33.23;23.10;;;4.80;99.90;;;;;;5000607;28;20446;-67
2022/01/11 09:26:58;;;;;;;37.07;26.00;;;4.80;99.90;;;;;;4996745;28;20483;-66
2022/01/11 09:29:25;;;;;;;37.13;24.27;;;4.60;99.90;;;;;;5000707;28;20567;-66
2022/01/11 09:31:50;;;;;;;35.00;23.93;;;4.70;99.90;;;;;;4999585;28;20473;-66
2022/01/11 09:34:16;;;;;;;35.27;25.30;;;4.70;99.90;;;;;;5001685;28;20468;-66
2022/01/11 09:36:42;;;;;;;35.53;23.73;;;4.80;99.90;;;;;;5001313;28;20202;-66
2022/01/11 09:39:07;;;;;;;29.87;23.37;;;4.80;99.90;;;;;;5004813;28;20191;-66
2022/01/11 09:41:34;;;;;;;30.50;23.63;;;4.80;99.90;;;;;;5003125;28;20203;-65
2022/01/11 09:44:00;;;;;;;32.07;22.50;;;4.80;99.90;;;;;;5003229;28;20187;-65
2022/01/11 09:46:28;;;;;;;32.07;22.60;;;5.00;99.90;;;;;;5011100;28;20445;-65
2022/01/11 09:48:53;;;;;;;30.57;21.97;;;4.80;99.90;;;;;;5014416;28;20437;-65
2022/01/11 09:51:19;;;;;;;31.20;21.83;;;4.80;99.90;;;;;;4998410;28;20458;-66
2022/01/11 09:53:46;;;;;;;44.33;25.87;;;4.80;99.90;;;;;;5013716;28;20625;-65
2022/01/11 09:56:13;;;;;;;51.23;30.00;;;4.80;99.90;;;;;;5011306;28;20755;-66
2022/01/11 09:58:39;;;;;;;40.37;24.30;;;4.80;99.90;;;;;;5006004;28;20465;-66
2022/01/11 10:01:05;;;;;;;43.00;25.20;;;4.90;99.90;;;;;;5004725;28;20539;-65
2022/01/11 10:03:30;;;;;;;32.13;19.20;;;4.80;99.90;;;;;;5011419;28;20947;-65
2022/01/11 10:05:56;;;;;;;38.43;20.53;;;4.80;99.90;;;;;;5010370;28;20182;-65
2022/01/11 10:08:28;;;;;;;64.47;29.77;;;4.80;99.90;;;;;;5007947;28;20529;-65
2022/01/11 10:10:57;;;;;;;42.97;24.30;;;5.00;99.90;;;;;;5006583;28;20446;-65
2022/01/11 10:13:28;;;;;;;41.17;24.30;;;5.20;99.90;;;;;;4998936;28;20440;-65
2022/01/11 10:15:54;;;;;;;32.77;21.10;;;5.20;99.90;;;;;;5000450;28;20438;-67
2022/01/11 10:18:37;;;;;;;38.83;23.17;;;5.30;99.90;;;;;;5001697;28;20449;-64
2022/01/11 10:21:31;;;;;;;38.53;21.40;;;5.30;99.90;;;;;;5001770;28;20831;-65
2022/01/11 10:23:57;;;;;;;29.77;20.30;;;5.50;99.90;;;;;;4995477;28;20548;-65
2022/01/11 10:26:45;;;;;;;34.83;22.30;;;5.70;99.90;;;;;;5005709;28;20949;-65
2022/01/11 10:29:33;;;;;;;36.67;23.40;;;5.80;99.90;;;;;;5003947;28;20175;-65
2022/01/11 10:32:11;;;;;;;29.93;20.70;;;5.90;99.90;;;;;;5007617;28;20465;-65
2022/01/11 10:34:38;;;;;;;30.43;20.33;;;6.10;99.90;;;;;;5005922;28;20434;-65
2022/01/11 10:37:05;;;;;;;24.53;19.03;;;6.00;99.90;;;;;;5002814;28;20944;-65
2022/01/11 10:39:40;;;;;;;26.17;19.10;;;6.00;99.90;;;;;;4996462;28;20446;-64
2022/01/11 10:42:21;;;;;;;23.93;18.90;;;6.20;99.90;;;;;;4994833;28;20472;-65
2022/01/11 10:45:18;;;;;;;19.53;16.50;;;6.30;99.90;;;;;;5000342;28;20788;-65
2022/01/11 10:47:47;;;;;;;25.67;17.80;;;6.30;99.90;;;;;;5002896;28;20477;-65
2022/01/11 10:50:39;;;;;;;24.93;18.67;;;6.20;99.90;;;;;;5007365;28;20857;-65
2022/01/11 10:53:11;;;;;;;22.33;16.67;;;6.40;99.90;;;;;;5013027;28;20917;-65
2022/01/11 10:55:36;;;;;;;23.00;17.20;;;6.50;99.90;;;;;;5001501;28;20426;-65
2022/01/11 10:58:12;;;;;;;21.47;16.87;;;6.70;99.90;;;;;;5006105;28;20749;-66
2022/01/11 11:00:52;;;;;;;22.70;16.57;;;6.80;99.90;;;;;;4999138;28;20175;-65
2022/01/11 11:03:24;;;;;;;19.20;16.07;;;6.70;99.90;;;;;;4996661;28;20802;-68
2022/01/11 11:06:10;;;;;;;21.00;16.70;;;6.70;99.90;;;;;;4997446;28;20458;-67
2022/01/11 11:08:40;;;;;;;22.33;14.63;;;6.80;99.90;;;;;;5003167;28;20442;-67
2022/01/11 11:11:11;;;;;;;24.57;17.00;;;6.90;99.90;;;;;;4993740;28;20476;-67
2022/01/11 11:13:39;;;;;;;20.07;16.00;;;7.00;99.90;;;;;;4994104;28;20423;-67
2022/01/11 11:16:11;;;;;;;21.50;15.27;;;6.90;99.90;;;;;;4999471;28;21403;-67
2022/01/11 11:18:42;;;;;;;21.07;16.37;;;6.80;99.90;;;;;;5011483;28;20504;-68
2022/01/11 11:21:18;;;;;;;16.73;14.30;;;6.70;99.90;;;;;;5012731;28;20533;-68
2022/01/11 11:23:45;;;;;;;13.73;11.50;;;7.10;99.90;;;;;;5010464;28;20432;-69
2022/01/11 11:26:11;;;;;;;15.57;11.27;;;7.30;99.90;;;;;;5002212;28;20484;-66
2022/01/11 11:28:38;;;;;;;15.50;12.30;;;7.50;99.90;;;;;;5000579;28;20971;-69
2022/01/11 11:31:04;;;;;;;17.30;11.93;;;7.50;99.90;;;;;;4993526;28;20497;-67
2022/01/11 11:33:30;;;;;;;13.50;12.03;;;7.50;99.90;;;;;;4993711;28;20451;-67
2022/01/11 11:35:57;;;;;;;13.97;9.40;;;7.50;99.90;;;;;;4994133;28;20437;-66
2022/01/11 11:38:29;;;;;;;12.50;10.87;;;7.60;99.90;;;;;;5013018;28;20425;-66
2022/01/11 11:40:55;;;;;;;13.70;10.30;;;7.90;99.90;;;;;;5013008;28;20421;-66
2022/01/11 11:43:21;;;;;;;21.83;14.97;;;8.70;99.90;;;;;;5012408;28;20460;-68
2022/01/11 11:45:47;;;;;;;19.67;13.47;;;9.70;99.90;;;;;;5009427;28;20445;-67
2022/01/11 11:48:16;;;;;;;17.33;11.53;;;11.40;99.90;;;;;;5012542;28;20931;-67
2022/01/11 11:50:58;;;;;;;12.47;10.70;;;13.80;99.90;;;;;;5012588;28;20186;-68
2022/01/11 11:53:32;;;;;;;10.57;9.53;;;15.60;96.30;;;;;;5012973;28;20450;-68
2022/01/11 11:56:22;;;;;;;10.73;9.60;;;14.40;93.70;;;;;;5008774;28;20426;-67
2022/01/11 11:58:56;;;;;;;15.87;9.33;;;12.20;96.30;;;;;;5003820;28;20433;-67
2022/01/11 12:01:45;;;;;;;13.93;11.10;;;10.50;99.80;;;;;;5003527;28;20839;-67
2022/01/11 12:04:16;;;;;;;14.37;12.30;;;9.10;99.90;;;;;;5006123;28;20442;-67
2022/01/11 12:06:44;;;;;;;21.27;11.70;;;8.30;99.90;;;;;;5000737;28;20439;-67
2022/01/11 12:09:16;;;;;;;14.10;11.47;;;7.70;99.90;;;;;;5004433;28;20441;-68
2022/01/11 12:11:49;;;;;;;15.33;11.70;;;7.30;99.90;;;;;;5002530;28;20497;-67
2022/01/11 12:14:36;;;;;;;13.50;10.50;;;7.20;99.90;;;;;;4999679;28;20430;-67
2022/01/11 12:17:18;;;;;;;14.37;10.90;;;7.00;99.90;;;;;;4998880;28;20469;-67
2022/01/11 12:19:49;;;;;;;11.27;9.63;;;6.70;99.90;;;;;;5003262;28;20441;-67
2022/01/11 12:22:20;;;;;;;13.63;10.80;;;6.50;99.90;;;;;;4995889;28;20466;-67
2022/01/11 12:24:48;;;;;;;10.87;9.53;;;6.50;99.90;;;;;;5003418;28;20514;-67
2022/01/11 12:27:16;;;;;;;12.63;10.37;;;6.80;99.90;;;;;;4999855;28;20958;-67
2022/01/11 12:30:08;;;;;;;11.63;10.40;;;7.30;99.90;;;;;;4994364;28;20440;-67
2022/01/11 12:32:38;;;;;;;13.63;9.00;;;8.10;99.90;;;;;;4999692;28;20484;-67
2022/01/11 12:35:10;;;;;;;8.80;7.90;;;8.40;99.90;;;;;;4997621;28;20853;-67
2022/01/11 12:37:44;;;;;;;8.83;8.03;;;8.60;99.90;;;;;;5000274;28;20944;-67
2022/01/11 12:40:31;;;;;;;8.03;6.60;;;8.70;99.90;;;;;;5004076;28;20443;-67
2022/01/11 12:43:08;;;;;;;7.53;6.73;;;8.40;99.90;;;;;;4993942;28;20473;-67
2022/01/11 12:46:02;;;;;;;6.00;5.40;;;7.80;99.90;;;;;;4991614;28;20528;-67